sensor_id;sensor_type;location;lat;lon;timestamp;P1;durP1;ratioP1;P2;durP2;ratioP2
52266;SDS011;38223;50.940;4.034;2022-12-18T00:02:12;94.77;;;50.43;;
52266;SDS011;38223;50.940;4.034;2022-12-18T00:04:42;98.17;;;50.25;;
52266;SDS011;38223;50.940;4.034;2022-12-18T00:07:13;92.42;;;49.63;;
52266;SDS011;38223;50.940;4.034;2022-12-18T00:09:47;89.63;;;48.37;;
52266;SDS011;38223;50.940;4.034;2022-12-18T00:12:17;88.97;;;45.85;;
52266;SDS011;38223;50.940;4.034;2022-12-18T00:14:53;87.43;;;46.10;;
52266;SDS011;38223;50.940;4.034;2022-12-18T00:17:32;85.10;;;47.35;;
52266;SDS011;38223;50.940;4.034;2022-12-18T00:20:03;94.67;;;50.07;;
52266;SDS011;38223;50.940;4.034;2022-12-18T00:22:36;102.17;;;49.73;;
52266;SDS011;38223;50.940;4.034;2022-12-18T00:25:05;95.85;;;49.83;;
52266;SDS011;38223;50.940;4.034;2022-12-18T00:27:40;91.23;;;48.43;;
52266;SDS011;38223;50.940;4.034;2022-12-18T00:30:11;95.07;;;49.20;;
52266;SDS011;38223;50.940;4.034;2022-12-18T00:32:43;96.53;;;48.63;;
52266;SDS011;38223;50.940;4.034;2022-12-18T00:35:16;92.80;;;48.70;;
52266;SDS011;38223;50.940;4.034;2022-12-18T00:37:48;86.43;;;46.50;;
52266;SDS011;38223;50.940;4.034;2022-12-18T00:40:18;90.73;;;45.73;;
52266;SDS011;38223;50.940;4.034;2022-12-18T00:42:51;86.27;;;45.97;;
52266;SDS011;38223;50.940;4.034;2022-12-18T00:45:27;84.43;;;44.37;;
52266;SDS011;38223;50.940;4.034;2022-12-18T00:48:00;82.00;;;44.40;;
52266;SDS011;38223;50.940;4.034;2022-12-18T00:50:37;75.67;;;40.27;;
52266;SDS011;38223;50.940;4.034;2022-12-18T00:53:11;74.70;;;40.70;;
52266;SDS011;38223;50.940;4.034;2022-12-18T00:55:40;69.40;;;38.38;;
52266;SDS011;38223;50.940;4.034;2022-12-18T00:58:13;69.95;;;37.75;;
52266;SDS011;38223;50.940;4.034;2022-12-18T01:00:47;76.97;;;39.63;;
52266;SDS011;38223;50.940;4.034;2022-12-18T01:03:21;67.78;;;37.30;;
52266;SDS011;38223;50.940;4.034;2022-12-18T01:05:52;68.37;;;37.17;;
52266;SDS011;38223;50.940;4.034;2022-12-18T01:08:21;64.62;;;37.60;;
52266;SDS011;38223;50.940;4.034;2022-12-18T01:10:53;68.33;;;36.63;;
52266;SDS011;38223;50.940;4.034;2022-12-18T01:13:27;67.17;;;36.23;;
52266;SDS011;38223;50.940;4.034;2022-12-18T01:15:55;70.77;;;38.47;;
52266;SDS011;38223;50.940;4.034;2022-12-18T01:18:25;66.90;;;36.10;;
52266;SDS011;38223;50.940;4.034;2022-12-18T01:20:53;67.03;;;36.42;;
52266;SDS011;38223;50.940;4.034;2022-12-18T01:23:21;69.33;;;37.67;;
52266;SDS011;38223;50.940;4.034;2022-12-18T01:25:55;72.57;;;37.80;;
52266;SDS011;38223;50.940;4.034;2022-12-18T01:28:25;78.33;;;41.83;;
52266;SDS011;38223;50.940;4.034;2022-12-18T01:30:59;75.93;;;41.37;;
52266;SDS011;38223;50.940;4.034;2022-12-18T01:33:31;83.27;;;42.37;;
52266;SDS011;38223;50.940;4.034;2022-12-18T01:36:00;74.60;;;40.92;;
52266;SDS011;38223;50.940;4.034;2022-12-18T01:38:28;73.30;;;38.80;;
52266;SDS011;38223;50.940;4.034;2022-12-18T01:41:05;71.50;;;39.53;;
52266;SDS011;38223;50.940;4.034;2022-12-18T01:43:46;77.27;;;39.87;;
52266;SDS011;38223;50.940;4.034;2022-12-18T01:46:24;71.03;;;37.87;;
52266;SDS011;38223;50.940;4.034;2022-12-18T01:48:55;76.83;;;37.50;;
52266;SDS011;38223;50.940;4.034;2022-12-18T01:51:29;75.83;;;38.77;;
52266;SDS011;38223;50.940;4.034;2022-12-18T01:54:02;75.37;;;39.37;;
52266;SDS011;38223;50.940;4.034;2022-12-18T01:56:36;72.87;;;39.23;;
52266;SDS011;38223;50.940;4.034;2022-12-18T01:59:13;69.80;;;37.17;;
52266;SDS011;38223;50.940;4.034;2022-12-18T02:01:41;73.33;;;37.93;;
52266;SDS011;38223;50.940;4.034;2022-12-18T02:04:24;72.87;;;38.10;;
52266;SDS011;38223;50.940;4.034;2022-12-18T02:07:41;70.43;;;36.17;;
52266;SDS011;38223;50.940;4.034;2022-12-18T02:10:03;70.57;;;35.67;;
52266;SDS011;38223;50.940;4.034;2022-12-18T02:12:24;71.70;;;36.67;;
52266;SDS011;38223;50.940;4.034;2022-12-18T02:15:25;67.82;;;34.88;;
52266;SDS011;38223;50.940;4.034;2022-12-18T02:17:46;70.30;;;35.20;;
52266;SDS011;38223;50.940;4.034;2022-12-18T02:20:26;67.43;;;34.00;;
52266;SDS011;38223;50.940;4.034;2022-12-18T02:28:38;62.37;;;33.13;;
52266;SDS011;38223;50.940;4.034;2022-12-18T02:31:09;64.00;;;34.83;;
52266;SDS011;38223;50.940;4.034;2022-12-18T02:33:41;66.60;;;33.27;;
52266;SDS011;38223;50.940;4.034;2022-12-18T02:36:13;58.40;;;32.90;;
52266;SDS011;38223;50.940;4.034;2022-12-18T02:38:49;60.10;;;33.13;;
52266;SDS011;38223;50.940;4.034;2022-12-18T02:41:22;60.50;;;33.97;;
52266;SDS011;38223;50.940;4.034;2022-12-18T02:43:56;63.77;;;33.03;;
52266;SDS011;38223;50.940;4.034;2022-12-18T02:46:51;60.97;;;33.73;;
52266;SDS011;38223;50.940;4.034;2022-12-18T02:57:53;56.60;;;29.87;;
52266;SDS011;38223;50.940;4.034;2022-12-18T03:00:31;54.03;;;29.80;;
52266;SDS011;38223;50.940;4.034;2022-12-18T03:03:04;53.70;;;29.30;;
52266;SDS011;38223;50.940;4.034;2022-12-18T03:05:47;48.80;;;28.40;;
52266;SDS011;38223;50.940;4.034;2022-12-18T03:08:26;53.10;;;30.00;;
52266;SDS011;38223;50.940;4.034;2022-12-18T03:13:45;50.23;;;28.17;;
52266;SDS011;38223;50.940;4.034;2022-12-18T03:16:18;53.27;;;27.57;;
52266;SDS011;38223;50.940;4.034;2022-12-18T03:18:53;52.03;;;28.20;;
52266;SDS011;38223;50.940;4.034;2022-12-18T03:21:42;50.73;;;27.63;;
52266;SDS011;38223;50.940;4.034;2022-12-18T03:24:08;47.87;;;28.10;;
52266;SDS011;38223;50.940;4.034;2022-12-18T03:26:42;52.03;;;29.57;;
52266;SDS011;38223;50.940;4.034;2022-12-18T03:29:22;55.00;;;29.23;;
52266;SDS011;38223;50.940;4.034;2022-12-18T03:32:10;54.03;;;29.10;;
52266;SDS011;38223;50.940;4.034;2022-12-18T03:34:46;56.57;;;28.90;;
52266;SDS011;38223;50.940;4.034;2022-12-18T03:37:21;56.40;;;29.23;;
52266;SDS011;38223;50.940;4.034;2022-12-18T03:39:54;53.00;;;28.40;;
52266;SDS011;38223;50.940;4.034;2022-12-18T03:43:03;49.47;;;28.03;;
52266;SDS011;38223;50.940;4.034;2022-12-18T03:48:06;48.53;;;26.93;;
52266;SDS011;38223;50.940;4.034;2022-12-18T03:53:32;57.37;;;29.07;;
52266;SDS011;38223;50.940;4.034;2022-12-18T03:56:08;51.93;;;27.57;;
52266;SDS011;38223;50.940;4.034;2022-12-18T03:58:42;49.57;;;26.93;;
52266;SDS011;38223;50.940;4.034;2022-12-18T04:01:13;53.40;;;27.13;;
52266;SDS011;38223;50.940;4.034;2022-12-18T04:03:47;52.33;;;26.37;;
52266;SDS011;38223;50.940;4.034;2022-12-18T04:06:21;48.77;;;26.73;;
52266;SDS011;38223;50.940;4.034;2022-12-18T04:08:51;48.57;;;26.30;;
52266;SDS011;38223;50.940;4.034;2022-12-18T04:11:22;48.43;;;25.63;;
52266;SDS011;38223;50.940;4.034;2022-12-18T04:13:55;50.03;;;26.50;;
52266;SDS011;38223;50.940;4.034;2022-12-18T04:16:24;48.60;;;26.03;;
52266;SDS011;38223;50.940;4.034;2022-12-18T04:18:58;44.83;;;24.43;;
52266;SDS011;38223;50.940;4.034;2022-12-18T04:21:33;43.00;;;24.67;;
52266;SDS011;38223;50.940;4.034;2022-12-18T04:24:04;43.77;;;24.67;;
52266;SDS011;38223;50.940;4.034;2022-12-18T04:26:36;47.90;;;25.43;;
52266;SDS011;38223;50.940;4.034;2022-12-18T04:29:12;48.17;;;26.63;;
52266;SDS011;38223;50.940;4.034;2022-12-18T04:31:45;43.60;;;25.37;;
52266;SDS011;38223;50.940;4.034;2022-12-18T04:34:16;53.73;;;25.50;;
52266;SDS011;38223;50.940;4.034;2022-12-18T04:36:51;49.20;;;25.30;;
52266;SDS011;38223;50.940;4.034;2022-12-18T04:39:21;41.33;;;23.33;;
52266;SDS011;38223;50.940;4.034;2022-12-18T04:41:52;49.23;;;25.77;;
52266;SDS011;38223;50.940;4.034;2022-12-18T04:44:23;47.43;;;25.60;;
52266;SDS011;38223;50.940;4.034;2022-12-18T04:46:52;46.15;;;25.77;;
52266;SDS011;38223;50.940;4.034;2022-12-18T04:49:25;47.07;;;25.07;;
52266;SDS011;38223;50.940;4.034;2022-12-18T04:51:59;42.07;;;24.10;;
52266;SDS011;38223;50.940;4.034;2022-12-18T04:54:33;42.73;;;23.63;;
52266;SDS011;38223;50.940;4.034;2022-12-18T04:57:05;42.17;;;23.87;;
52266;SDS011;38223;50.940;4.034;2022-12-18T04:59:37;40.70;;;22.77;;
52266;SDS011;38223;50.940;4.034;2022-12-18T05:02:13;40.97;;;22.67;;
52266;SDS011;38223;50.940;4.034;2022-12-18T05:04:43;36.83;;;19.57;;
52266;SDS011;38223;50.940;4.034;2022-12-18T05:07:15;34.03;;;19.37;;
52266;SDS011;38223;50.940;4.034;2022-12-18T05:09:49;30.83;;;18.47;;
52266;SDS011;38223;50.940;4.034;2022-12-18T05:12:22;38.57;;;19.93;;
52266;SDS011;38223;50.940;4.034;2022-12-18T05:14:54;34.00;;;19.07;;
52266;SDS011;38223;50.940;4.034;2022-12-18T05:17:26;38.20;;;21.30;;
52266;SDS011;38223;50.940;4.034;2022-12-18T05:19:55;41.57;;;22.53;;
52266;SDS011;38223;50.940;4.034;2022-12-18T05:22:24;40.93;;;21.50;;
52266;SDS011;38223;50.940;4.034;2022-12-18T05:24:57;34.73;;;20.47;;
52266;SDS011;38223;50.940;4.034;2022-12-18T05:27:31;36.87;;;21.17;;
52266;SDS011;38223;50.940;4.034;2022-12-18T05:30:04;30.33;;;19.83;;
52266;SDS011;38223;50.940;4.034;2022-12-18T05:32:35;33.53;;;19.67;;
52266;SDS011;38223;50.940;4.034;2022-12-18T05:35:08;33.93;;;18.63;;
52266;SDS011;38223;50.940;4.034;2022-12-18T05:37:42;28.97;;;17.67;;
52266;SDS011;38223;50.940;4.034;2022-12-18T05:40:17;32.13;;;18.13;;
52266;SDS011;38223;50.940;4.034;2022-12-18T05:42:48;31.93;;;18.47;;
52266;SDS011;38223;50.940;4.034;2022-12-18T05:45:20;33.83;;;19.90;;
52266;SDS011;38223;50.940;4.034;2022-12-18T05:47:51;34.77;;;19.63;;
52266;SDS011;38223;50.940;4.034;2022-12-18T05:52:49;34.60;;;19.57;;
52266;SDS011;38223;50.940;4.034;2022-12-18T05:55:20;36.73;;;20.43;;
52266;SDS011;38223;50.940;4.034;2022-12-18T05:57:51;37.07;;;20.27;;
52266;SDS011;38223;50.940;4.034;2022-12-18T06:00:24;34.57;;;19.53;;
52266;SDS011;38223;50.940;4.034;2022-12-18T06:02:58;36.73;;;20.13;;
52266;SDS011;38223;50.940;4.034;2022-12-18T06:05:41;35.57;;;20.03;;
52266;SDS011;38223;50.940;4.034;2022-12-18T06:08:17;33.73;;;20.37;;
52266;SDS011;38223;50.940;4.034;2022-12-18T06:10:49;30.93;;;20.07;;
52266;SDS011;38223;50.940;4.034;2022-12-18T06:13:22;39.47;;;21.37;;
52266;SDS011;38223;50.940;4.034;2022-12-18T06:15:53;30.30;;;20.37;;
52266;SDS011;38223;50.940;4.034;2022-12-18T06:18:28;40.67;;;22.43;;
52266;SDS011;38223;50.940;4.034;2022-12-18T06:21:01;33.80;;;21.97;;
52266;SDS011;38223;50.940;4.034;2022-12-18T06:23:32;36.97;;;21.40;;
52266;SDS011;38223;50.940;4.034;2022-12-18T06:26:06;35.97;;;21.87;;
52266;SDS011;38223;50.940;4.034;2022-12-18T06:28:35;40.67;;;21.50;;
52266;SDS011;38223;50.940;4.034;2022-12-18T06:31:06;34.20;;;20.82;;
52266;SDS011;38223;50.940;4.034;2022-12-18T06:33:37;41.23;;;22.57;;
52266;SDS011;38223;50.940;4.034;2022-12-18T06:36:12;34.77;;;20.07;;
52266;SDS011;38223;50.940;4.034;2022-12-18T06:38:43;34.80;;;19.90;;
52266;SDS011;38223;50.940;4.034;2022-12-18T06:41:18;31.67;;;18.87;;
52266;SDS011;38223;50.940;4.034;2022-12-18T06:43:53;33.07;;;18.50;;
52266;SDS011;38223;50.940;4.034;2022-12-18T06:46:26;28.07;;;17.40;;
52266;SDS011;38223;50.940;4.034;2022-12-18T06:48:55;31.52;;;17.12;;
52266;SDS011;38223;50.940;4.034;2022-12-18T06:51:27;26.07;;;17.47;;
52266;SDS011;38223;50.940;4.034;2022-12-18T06:53:58;25.90;;;16.13;;
52266;SDS011;38223;50.940;4.034;2022-12-18T06:56:31;28.93;;;17.33;;
52266;SDS011;38223;50.940;4.034;2022-12-18T06:58:59;29.77;;;17.50;;
52266;SDS011;38223;50.940;4.034;2022-12-18T07:01:34;26.73;;;16.67;;
52266;SDS011;38223;50.940;4.034;2022-12-18T07:04:03;29.60;;;17.70;;
52266;SDS011;38223;50.940;4.034;2022-12-18T07:06:34;29.00;;;17.87;;
52266;SDS011;38223;50.940;4.034;2022-12-18T07:09:05;27.63;;;16.67;;
52266;SDS011;38223;50.940;4.034;2022-12-18T07:11:40;30.13;;;18.07;;
52266;SDS011;38223;50.940;4.034;2022-12-18T07:14:10;27.80;;;17.50;;
52266;SDS011;38223;50.940;4.034;2022-12-18T07:16:42;23.20;;;14.50;;
52266;SDS011;38223;50.940;4.034;2022-12-18T07:19:16;25.00;;;14.53;;
52266;SDS011;38223;50.940;4.034;2022-12-18T07:21:49;25.90;;;15.27;;
52266;SDS011;38223;50.940;4.034;2022-12-18T07:24:22;25.63;;;14.80;;
52266;SDS011;38223;50.940;4.034;2022-12-18T07:27:00;37.23;;;15.23;;
52266;SDS011;38223;50.940;4.034;2022-12-18T07:29:30;30.50;;;15.70;;
52266;SDS011;38223;50.940;4.034;2022-12-18T07:32:03;25.43;;;15.03;;
52266;SDS011;38223;50.940;4.034;2022-12-18T07:34:34;23.23;;;13.80;;
52266;SDS011;38223;50.940;4.034;2022-12-18T07:37:07;25.60;;;14.33;;
52266;SDS011;38223;50.940;4.034;2022-12-18T07:39:38;27.63;;;14.50;;
52266;SDS011;38223;50.940;4.034;2022-12-18T07:42:09;22.20;;;13.38;;
52266;SDS011;38223;50.940;4.034;2022-12-18T07:44:55;20.63;;;12.60;;
52266;SDS011;38223;50.940;4.034;2022-12-18T07:47:28;19.60;;;11.80;;
52266;SDS011;38223;50.940;4.034;2022-12-18T07:50:03;18.03;;;12.07;;
52266;SDS011;38223;50.940;4.034;2022-12-18T07:52:39;15.17;;;11.43;;
52266;SDS011;38223;50.940;4.034;2022-12-18T07:55:09;16.37;;;11.27;;
52266;SDS011;38223;50.940;4.034;2022-12-18T07:57:41;15.07;;;11.33;;
52266;SDS011;38223;50.940;4.034;2022-12-18T08:00:16;16.20;;;11.57;;
52266;SDS011;38223;50.940;4.034;2022-12-18T08:02:48;22.47;;;12.80;;
52266;SDS011;38223;50.940;4.034;2022-12-18T08:05:24;18.07;;;11.97;;
52266;SDS011;38223;50.940;4.034;2022-12-18T08:07:56;19.50;;;13.30;;
52266;SDS011;38223;50.940;4.034;2022-12-18T08:10:31;20.60;;;13.20;;
52266;SDS011;38223;50.940;4.034;2022-12-18T08:13:05;25.03;;;13.93;;
52266;SDS011;38223;50.940;4.034;2022-12-18T08:15:36;24.93;;;13.07;;
52266;SDS011;38223;50.940;4.034;2022-12-18T08:18:08;16.67;;;10.73;;
52266;SDS011;38223;50.940;4.034;2022-12-18T08:20:41;18.00;;;9.83;;
52266;SDS011;38223;50.940;4.034;2022-12-18T08:23:11;12.35;;;9.10;;
52266;SDS011;38223;50.940;4.034;2022-12-18T08:25:46;11.33;;;9.30;;
52266;SDS011;38223;50.940;4.034;2022-12-18T08:28:15;11.90;;;9.50;;
52266;SDS011;38223;50.940;4.034;2022-12-18T08:30:51;16.37;;;10.17;;
52266;SDS011;38223;50.940;4.034;2022-12-18T08:33:20;11.87;;;9.70;;
52266;SDS011;38223;50.940;4.034;2022-12-18T08:35:52;13.00;;;10.33;;
52266;SDS011;38223;50.940;4.034;2022-12-18T08:38:29;13.17;;;9.67;;
52266;SDS011;38223;50.940;4.034;2022-12-18T08:41:06;14.10;;;10.50;;
52266;SDS011;38223;50.940;4.034;2022-12-18T08:43:39;12.73;;;10.18;;
52266;SDS011;38223;50.940;4.034;2022-12-18T08:46:31;12.88;;;10.40;;
52266;SDS011;38223;50.940;4.034;2022-12-18T08:49:04;12.13;;;9.97;;
52266;SDS011;38223;50.940;4.034;2022-12-18T08:51:39;14.18;;;11.00;;
52266;SDS011;38223;50.940;4.034;2022-12-18T08:54:13;12.83;;;10.53;;
52266;SDS011;38223;50.940;4.034;2022-12-18T08:56:45;14.83;;;10.55;;
52266;SDS011;38223;50.940;4.034;2022-12-18T08:59:15;13.63;;;10.23;;
52266;SDS011;38223;50.940;4.034;2022-12-18T09:01:48;14.07;;;11.10;;
52266;SDS011;38223;50.940;4.034;2022-12-18T09:04:21;12.98;;;9.95;;
52266;SDS011;38223;50.940;4.034;2022-12-18T09:06:53;13.70;;;9.93;;
52266;SDS011;38223;50.940;4.034;2022-12-18T09:09:25;15.98;;;11.03;;
52266;SDS011;38223;50.940;4.034;2022-12-18T09:11:56;21.57;;;10.88;;
52266;SDS011;38223;50.940;4.034;2022-12-18T09:14:32;14.23;;;10.75;;
52266;SDS011;38223;50.940;4.034;2022-12-18T09:17:03;16.23;;;11.22;;
52266;SDS011;38223;50.940;4.034;2022-12-18T09:19:38;16.48;;;10.95;;
52266;SDS011;38223;50.940;4.034;2022-12-18T09:22:09;13.72;;;10.45;;
52266;SDS011;38223;50.940;4.034;2022-12-18T09:24:38;13.25;;;10.32;;
52266;SDS011;38223;50.940;4.034;2022-12-18T09:27:19;14.97;;;10.57;;
52266;SDS011;38223;50.940;4.034;2022-12-18T09:29:50;13.08;;;10.13;;
52266;SDS011;38223;50.940;4.034;2022-12-18T09:32:20;14.53;;;11.33;;
52266;SDS011;38223;50.940;4.034;2022-12-18T09:34:53;16.37;;;12.53;;
52266;SDS011;38223;50.940;4.034;2022-12-18T09:37:23;16.02;;;12.33;;
52266;SDS011;38223;50.940;4.034;2022-12-18T09:40:03;17.50;;;11.83;;
52266;SDS011;38223;50.940;4.034;2022-12-18T09:42:33;14.10;;;11.73;;
52266;SDS011;38223;50.940;4.034;2022-12-18T09:45:11;17.25;;;11.70;;
52266;SDS011;38223;50.940;4.034;2022-12-18T09:47:39;13.50;;;11.45;;
52266;SDS011;38223;50.940;4.034;2022-12-18T09:50:25;15.97;;;12.07;;
52266;SDS011;38223;50.940;4.034;2022-12-18T09:53:09;16.50;;;11.20;;
52266;SDS011;38223;50.940;4.034;2022-12-18T09:55:41;14.83;;;11.40;;
52266;SDS011;38223;50.940;4.034;2022-12-18T09:58:14;15.43;;;11.95;;
52266;SDS011;38223;50.940;4.034;2022-12-18T10:00:53;16.37;;;11.90;;
52266;SDS011;38223;50.940;4.034;2022-12-18T10:03:28;15.23;;;11.45;;
52266;SDS011;38223;50.940;4.034;2022-12-18T10:06:06;13.37;;;11.20;;
52266;SDS011;38223;50.940;4.034;2022-12-18T10:09:02;14.25;;;10.88;;
52266;SDS011;38223;50.940;4.034;2022-12-18T10:14:27;17.25;;;12.43;;
52266;SDS011;38223;50.940;4.034;2022-12-18T10:20:00;16.48;;;11.80;;
52266;SDS011;38223;50.940;4.034;2022-12-18T10:25:38;16.50;;;12.18;;
52266;SDS011;38223;50.940;4.034;2022-12-18T10:28:17;15.95;;;12.00;;
52266;SDS011;38223;50.940;4.034;2022-12-18T10:30:47;15.30;;;11.97;;
52266;SDS011;38223;50.940;4.034;2022-12-18T10:33:27;19.07;;;12.20;;
52266;SDS011;38223;50.940;4.034;2022-12-18T10:36:00;15.70;;;11.90;;
52266;SDS011;38223;50.940;4.034;2022-12-18T10:38:33;14.83;;;11.95;;
52266;SDS011;38223;50.940;4.034;2022-12-18T10:41:23;17.02;;;12.55;;
52266;SDS011;38223;50.940;4.034;2022-12-18T10:43:50;18.02;;;12.63;;
52266;SDS011;38223;50.940;4.034;2022-12-18T10:46:41;16.17;;;12.00;;
52266;SDS011;38223;50.940;4.034;2022-12-18T10:49:25;14.55;;;12.37;;
52266;SDS011;38223;50.940;4.034;2022-12-18T10:52:04;16.83;;;12.63;;
52266;SDS011;38223;50.940;4.034;2022-12-18T10:54:46;16.77;;;12.60;;
52266;SDS011;38223;50.940;4.034;2022-12-18T11:00:21;18.05;;;12.47;;
52266;SDS011;38223;50.940;4.034;2022-12-18T11:03:31;18.05;;;13.30;;
52266;SDS011;38223;50.940;4.034;2022-12-18T11:05:49;16.67;;;12.68;;
52266;SDS011;38223;50.940;4.034;2022-12-18T11:08:20;19.57;;;13.90;;
52266;SDS011;38223;50.940;4.034;2022-12-18T11:10:54;20.80;;;14.73;;
52266;SDS011;38223;50.940;4.034;2022-12-18T11:13:27;22.35;;;14.47;;
52266;SDS011;38223;50.940;4.034;2022-12-18T11:16:01;19.37;;;13.70;;
52266;SDS011;38223;50.940;4.034;2022-12-18T11:18:35;21.42;;;14.35;;
52266;SDS011;38223;50.940;4.034;2022-12-18T11:21:07;17.85;;;13.78;;
52266;SDS011;38223;50.940;4.034;2022-12-18T11:23:45;20.77;;;14.00;;
52266;SDS011;38223;50.940;4.034;2022-12-18T11:26:14;19.15;;;14.18;;
52266;SDS011;38223;50.940;4.034;2022-12-18T11:31:27;19.35;;;14.45;;
52266;SDS011;38223;50.940;4.034;2022-12-18T11:36:52;20.43;;;15.40;;
52266;SDS011;38223;50.940;4.034;2022-12-18T11:39:39;21.50;;;14.05;;
52266;SDS011;38223;50.940;4.034;2022-12-18T11:47:48;21.50;;;15.38;;
52266;SDS011;38223;50.940;4.034;2022-12-18T11:50:41;20.23;;;14.80;;
52266;SDS011;38223;50.940;4.034;2022-12-18T11:53:14;20.27;;;15.05;;
52266;SDS011;38223;50.940;4.034;2022-12-18T11:55:44;21.77;;;15.25;;
52266;SDS011;38223;50.940;4.034;2022-12-18T12:01:00;22.85;;;16.20;;
52266;SDS011;38223;50.940;4.034;2022-12-18T12:07:02;21.73;;;15.00;;
52266;SDS011;38223;50.940;4.034;2022-12-18T12:24:00;26.48;;;16.67;;
52266;SDS011;38223;50.940;4.034;2022-12-18T12:26:45;30.37;;;17.05;;
52266;SDS011;38223;50.940;4.034;2022-12-18T12:35:06;28.20;;;16.67;;
52266;SDS011;38223;50.940;4.034;2022-12-18T12:37:58;22.95;;;15.45;;
52266;SDS011;38223;50.940;4.034;2022-12-18T12:40:36;24.77;;;16.05;;
52266;SDS011;38223;50.940;4.034;2022-12-18T12:48:32;21.97;;;15.20;;
52266;SDS011;38223;50.940;4.034;2022-12-18T12:51:08;21.33;;;14.68;;
52266;SDS011;38223;50.940;4.034;2022-12-18T12:53:42;22.80;;;15.05;;
52266;SDS011;38223;50.940;4.034;2022-12-18T12:56:13;23.35;;;15.93;;
52266;SDS011;38223;50.940;4.034;2022-12-18T13:02:02;26.37;;;15.38;;
52266;SDS011;38223;50.940;4.034;2022-12-18T13:07:42;23.47;;;15.70;;
52266;SDS011;38223;50.940;4.034;2022-12-18T13:10:36;23.55;;;15.90;;
52266;SDS011;38223;50.940;4.034;2022-12-18T13:13:13;23.57;;;15.68;;
52266;SDS011;38223;50.940;4.034;2022-12-18T13:15:46;27.10;;;16.97;;
52266;SDS011;38223;50.940;4.034;2022-12-18T13:18:31;28.23;;;17.23;;
52266;SDS011;38223;50.940;4.034;2022-12-18T13:21:28;25.92;;;16.50;;
52266;SDS011;38223;50.940;4.034;2022-12-18T13:26:54;24.67;;;16.93;;
52266;SDS011;38223;50.940;4.034;2022-12-18T13:29:42;25.85;;;16.90;;
52266;SDS011;38223;50.940;4.034;2022-12-18T13:32:22;26.20;;;17.52;;
52266;SDS011;38223;50.940;4.034;2022-12-18T13:37:52;27.62;;;17.32;;
52266;SDS011;38223;50.940;4.034;2022-12-18T13:51:49;30.43;;;19.05;;
52266;SDS011;38223;50.940;4.034;2022-12-18T13:54:35;28.62;;;18.67;;
52266;SDS011;38223;50.940;4.034;2022-12-18T13:57:27;33.33;;;20.05;;
52266;SDS011;38223;50.940;4.034;2022-12-18T14:00:17;30.37;;;18.40;;
52266;SDS011;38223;50.940;4.034;2022-12-18T14:02:58;32.28;;;18.95;;
52266;SDS011;38223;50.940;4.034;2022-12-18T14:05:44;34.27;;;19.40;;
52266;SDS011;38223;50.940;4.034;2022-12-18T14:08:20;33.28;;;20.50;;
52266;SDS011;38223;50.940;4.034;2022-12-18T14:10:54;33.08;;;20.05;;
52266;SDS011;38223;50.940;4.034;2022-12-18T14:13:35;31.82;;;21.07;;
52266;SDS011;38223;50.940;4.034;2022-12-18T14:16:01;31.00;;;20.25;;
52266;SDS011;38223;50.940;4.034;2022-12-18T14:21:17;54.03;;;20.72;;
52266;SDS011;38223;50.940;4.034;2022-12-18T14:23:47;32.83;;;19.82;;
52266;SDS011;38223;50.940;4.034;2022-12-18T14:29:00;34.23;;;19.53;;
52266;SDS011;38223;50.940;4.034;2022-12-18T14:31:33;30.48;;;20.17;;
52266;SDS011;38223;50.940;4.034;2022-12-18T14:34:08;33.08;;;19.45;;
52266;SDS011;38223;50.940;4.034;2022-12-18T14:36:37;37.17;;;20.75;;
52266;SDS011;38223;50.940;4.034;2022-12-18T14:39:11;32.30;;;20.50;;
52266;SDS011;38223;50.940;4.034;2022-12-18T14:41:41;32.45;;;19.60;;
52266;SDS011;38223;50.940;4.034;2022-12-18T14:44:12;31.85;;;19.25;;
52266;SDS011;38223;50.940;4.034;2022-12-18T14:49:42;33.25;;;20.40;;
52266;SDS011;38223;50.940;4.034;2022-12-18T14:52:27;44.90;;;20.70;;
52266;SDS011;38223;50.940;4.034;2022-12-18T14:54:57;38.08;;;20.37;;
52266;SDS011;38223;50.940;4.034;2022-12-18T14:57:31;34.03;;;19.40;;
52266;SDS011;38223;50.940;4.034;2022-12-18T15:00:11;34.50;;;20.08;;
52266;SDS011;38223;50.940;4.034;2022-12-18T15:02:43;35.92;;;20.23;;
52266;SDS011;38223;50.940;4.034;2022-12-18T15:05:30;35.45;;;20.20;;
52266;SDS011;38223;50.940;4.034;2022-12-18T15:08:24;35.38;;;20.37;;
52266;SDS011;38223;50.940;4.034;2022-12-18T15:10:46;34.58;;;19.32;;
52266;SDS011;38223;50.940;4.034;2022-12-18T15:16:05;32.45;;;19.50;;
52266;SDS011;38223;50.940;4.034;2022-12-18T15:18:42;33.18;;;20.02;;
52266;SDS011;38223;50.940;4.034;2022-12-18T15:21:18;38.20;;;19.90;;
52266;SDS011;38223;50.940;4.034;2022-12-18T15:23:52;35.98;;;20.75;;
52266;SDS011;38223;50.940;4.034;2022-12-18T15:26:24;35.17;;;20.62;;
52266;SDS011;38223;50.940;4.034;2022-12-18T15:28:59;32.15;;;19.75;;
52266;SDS011;38223;50.940;4.034;2022-12-18T15:31:29;37.73;;;20.68;;
52266;SDS011;38223;50.940;4.034;2022-12-18T15:34:20;33.02;;;19.85;;
52266;SDS011;38223;50.940;4.034;2022-12-18T15:36:52;39.63;;;21.27;;
52266;SDS011;38223;50.940;4.034;2022-12-18T15:39:23;32.45;;;21.00;;
52266;SDS011;38223;50.940;4.034;2022-12-18T15:41:52;37.63;;;21.37;;
52266;SDS011;38223;50.940;4.034;2022-12-18T15:44:42;33.78;;;20.77;;
52266;SDS011;38223;50.940;4.034;2022-12-18T15:47:13;37.60;;;21.97;;
52266;SDS011;38223;50.940;4.034;2022-12-18T15:49:45;34.27;;;20.68;;
52266;SDS011;38223;50.940;4.034;2022-12-18T15:52:20;42.45;;;22.17;;
52266;SDS011;38223;50.940;4.034;2022-12-18T15:54:51;36.83;;;20.52;;
52266;SDS011;38223;50.940;4.034;2022-12-18T15:57:39;34.15;;;20.25;;
52266;SDS011;38223;50.940;4.034;2022-12-18T16:00:12;39.03;;;22.10;;
52266;SDS011;38223;50.940;4.034;2022-12-18T16:02:44;38.23;;;21.27;;
52266;SDS011;38223;50.940;4.034;2022-12-18T16:05:17;37.55;;;20.25;;
52266;SDS011;38223;50.940;4.034;2022-12-18T16:07:50;38.48;;;21.77;;
52266;SDS011;38223;50.940;4.034;2022-12-18T16:10:22;38.00;;;21.87;;
52266;SDS011;38223;50.940;4.034;2022-12-18T16:12:56;38.70;;;20.55;;
52266;SDS011;38223;50.940;4.034;2022-12-18T16:15:31;35.73;;;20.57;;
52266;SDS011;38223;50.940;4.034;2022-12-18T16:18:01;34.33;;;20.17;;
52266;SDS011;38223;50.940;4.034;2022-12-18T16:20:43;36.63;;;21.12;;
52266;SDS011;38223;50.940;4.034;2022-12-18T16:23:16;37.70;;;21.75;;
52266;SDS011;38223;50.940;4.034;2022-12-18T16:25:49;39.70;;;21.93;;
52266;SDS011;38223;50.940;4.034;2022-12-18T16:28:26;35.33;;;20.88;;
52266;SDS011;38223;50.940;4.034;2022-12-18T16:30:55;39.40;;;21.52;;
52266;SDS011;38223;50.940;4.034;2022-12-18T16:33:28;41.90;;;23.38;;
52266;SDS011;38223;50.940;4.034;2022-12-18T16:36:00;42.62;;;22.82;;
52266;SDS011;38223;50.940;4.034;2022-12-18T16:38:37;47.60;;;24.20;;
52266;SDS011;38223;50.940;4.034;2022-12-18T16:41:18;42.80;;;21.97;;
52266;SDS011;38223;50.940;4.034;2022-12-18T16:43:59;46.50;;;24.90;;
52266;SDS011;38223;50.940;4.034;2022-12-18T16:46:35;40.48;;;22.48;;
52266;SDS011;38223;50.940;4.034;2022-12-18T16:49:06;44.58;;;24.50;;
52266;SDS011;38223;50.940;4.034;2022-12-18T16:51:39;37.88;;;21.15;;
52266;SDS011;38223;50.940;4.034;2022-12-18T16:54:11;39.20;;;22.40;;
52266;SDS011;38223;50.940;4.034;2022-12-18T16:56:43;43.87;;;23.35;;
52266;SDS011;38223;50.940;4.034;2022-12-18T16:59:20;42.67;;;22.90;;